createdAt,value
2023-03-30T00:00:00.572Z,99980
2023-03-30T00:01:01.164Z,99980
2023-03-30T00:02:00.522Z,99980
2023-03-30T00:03:00.688Z,99980
2023-03-30T00:04:00.782Z,99980
2023-03-30T00:05:00.828Z,99980
2023-03-30T00:06:03.709Z,99980
2023-03-30T00:07:00.511Z,99980
2023-03-30T00:08:01.124Z,99980
2023-03-30T00:09:00.541Z,99980
2023-03-30T00:10:00.700Z,99980
2023-03-30T00:11:11.374Z,99980
2023-03-30T00:12:00.551Z,99980
2023-03-30T00:13:00.558Z,99970
2023-03-30T00:14:00.995Z,99980
2023-03-30T00:15:00.583Z,99980
2023-03-30T00:16:01.011Z,99970
2023-03-30T00:17:00.537Z,99970
2023-03-30T00:18:00.580Z,99970
2023-03-30T00:19:00.593Z,99970
2023-03-30T00:20:00.900Z,99970
2023-03-30T00:21:00.628Z,99970
2023-03-30T00:22:00.560Z,99980
2023-03-30T00:23:00.563Z,99970
2023-03-30T00:24:00.546Z,99980
2023-03-30T00:25:00.533Z,99980
2023-03-30T00:26:00.529Z,99970
2023-03-30T00:27:00.602Z,99970
2023-03-30T00:28:00.494Z,99970
2023-03-30T00:29:00.536Z,99970
2023-03-30T00:30:00.795Z,99970
2023-03-30T00:31:00.590Z,99970
2023-03-30T00:32:00.576Z,99970
2023-03-30T00:33:00.528Z,99970
2023-03-30T00:34:00.519Z,99970
2023-03-30T00:35:00.646Z,99970
2023-03-30T00:36:00.667Z,99970
2023-03-30T00:37:00.517Z,99970
2023-03-30T00:38:01.073Z,99970
2023-03-30T00:39:00.498Z,99960
2023-03-30T00:40:00.554Z,99960
2023-03-30T00:41:00.952Z,99970
2023-03-30T00:42:00.509Z,99960
2023-03-30T00:43:03.129Z,99960
2023-03-30T00:44:05.594Z,99960
2023-03-30T00:45:19.628Z,99960
2023-03-30T00:46:00.623Z,99960
2023-03-30T00:47:00.538Z,99960
2023-03-30T00:48:11.478Z,99960
2023-03-30T00:49:04.908Z,99960
2023-03-30T00:50:01.259Z,99960
2023-03-30T00:51:05.098Z,99960
2023-03-30T00:52:00.531Z,99960
2023-03-30T00:53:05.767Z,99950
2023-03-30T00:54:07.779Z,99950
2023-03-30T00:55:00.553Z,99950
2023-03-30T00:56:03.629Z,99940
2023-03-30T00:57:00.718Z,99940
2023-03-30T00:58:00.677Z,99950
2023-03-30T00:59:01.545Z,99940
2023-03-30T01:00:00.849Z,99940
2023-03-30T01:01:03.542Z,99940
2023-03-30T01:02:00.674Z,99940
2023-03-30T01:03:06.860Z,99930
2023-03-30T01:04:01.520Z,99930
2023-03-30T01:05:01.761Z,99920
2023-03-30T01:06:04.077Z,99930
2023-03-30T01:07:00.591Z,99930
2023-03-30T01:08:01.134Z,99920
2023-03-30T01:09:00.534Z,99920
2023-03-30T01:10:01.047Z,99920
2023-03-30T01:11:01.399Z,99930
2023-03-30T01:12:00.538Z,99920
2023-03-30T01:13:01.023Z,99920
2023-03-30T01:14:04.745Z,99920
2023-03-30T01:15:00.627Z,99920
2023-03-30T01:16:12.018Z,99910
2023-03-30T01:17:13.740Z,99910
2023-03-30T01:18:14.086Z,99910
2023-03-30T01:19:13.745Z,99910
2023-03-30T01:20:20.415Z,99910
2023-03-30T01:21:20.441Z,99910
2023-03-30T01:22:13.704Z,99910
2023-03-30T01:23:10.457Z,99910
2023-03-30T01:24:11.466Z,99910
2023-03-30T01:25:20.442Z,99920
2023-03-30T01:26:19.531Z,99920
2023-03-30T01:27:17.750Z,99920
2023-03-30T01:28:11.490Z,99920
2023-03-30T01:29:15.471Z,99920
2023-03-30T01:30:17.788Z,99920
2023-03-30T01:31:20.481Z,99920
2023-03-30T01:32:20.499Z,99920
2023-03-30T01:33:01.575Z,99910
2023-03-30T01:34:08.668Z,99910
2023-03-30T01:35:17.842Z,99910
2023-03-30T01:36:01.539Z,99910
2023-03-30T01:37:20.410Z,99910
2023-03-30T01:38:11.068Z,99910
2023-03-30T01:39:18.254Z,99910
2023-03-30T01:40:03.776Z,99910
2023-03-30T01:41:11.300Z,99900
2023-03-30T01:42:10.465Z,99900
2023-03-30T01:43:09.581Z,99900
2023-03-30T01:44:14.103Z,99900
2023-03-30T01:45:10.639Z,99900
2023-03-30T01:46:06.788Z,99900
2023-03-30T01:47:09.570Z,99900
2023-03-30T01:48:17.394Z,99900
2023-03-30T01:49:10.455Z,99890
2023-03-30T01:50:08.170Z,99890
2023-03-30T01:51:07.879Z,99880
2023-03-30T01:52:05.710Z,99880
2023-03-30T01:53:08.938Z,99890
2023-03-30T01:54:05.991Z,99890
2023-03-30T01:55:07.991Z,99880
2023-03-30T01:56:06.768Z,99880
2023-03-30T01:57:06.517Z,99880
2023-03-30T01:58:09.444Z,99880
2023-03-30T01:59:11.482Z,99880
2023-03-30T02:00:06.217Z,99880
2023-03-30T02:01:03.440Z,99880
2023-03-30T02:02:04.210Z,99880
2023-03-30T02:03:07.856Z,99870
2023-03-30T02:04:02.415Z,99870
2023-03-30T02:05:01.890Z,99870
2023-03-30T02:06:10.665Z,99870
2023-03-30T02:07:07.724Z,99870
2023-03-30T02:08:07.362Z,99870
2023-03-30T02:09:00.699Z,99870
2023-03-30T02:10:05.116Z,99870
2023-03-30T02:11:00.712Z,99860
2023-03-30T02:12:02.719Z,99860
2023-03-30T02:13:02.832Z,99860
2023-03-30T02:14:03.354Z,99860
2023-03-30T02:15:05.198Z,99860
2023-03-30T02:16:08.279Z,99860
2023-03-30T02:17:13.934Z,99850
2023-03-30T02:18:00.781Z,99850
2023-03-30T02:19:00.540Z,99850
2023-03-30T02:20:00.934Z,99860
2023-03-30T02:21:00.515Z,99850
2023-03-30T02:22:00.579Z,99850
2023-03-30T02:23:01.445Z,99850
2023-03-30T02:24:03.831Z,99850
2023-03-30T02:25:00.579Z,99850
2023-03-30T02:26:00.917Z,99840
2023-03-30T02:27:01.384Z,99840
2023-03-30T02:28:00.766Z,99840
2023-03-30T02:29:00.526Z,99840
2023-03-30T02:30:00.641Z,99830
2023-03-30T02:31:00.692Z,99830
2023-03-30T02:32:00.776Z,99840
2023-03-30T02:33:00.846Z,99840
2023-03-30T02:34:13.711Z,99830
2023-03-30T02:35:10.474Z,99830
2023-03-30T02:36:10.410Z,99840
2023-03-30T02:37:17.977Z,99840
2023-03-30T02:38:10.436Z,99840
2023-03-30T02:39:13.191Z,99840
2023-03-30T02:40:13.738Z,99840
2023-03-30T02:41:11.460Z,99840
2023-03-30T02:42:20.415Z,99840
2023-03-30T02:43:11.464Z,99840
2023-03-30T02:44:08.109Z,99840
2023-03-30T02:45:20.430Z,99830
2023-03-30T02:46:09.278Z,99840
2023-03-30T02:47:07.892Z,99840
2023-03-30T02:48:20.411Z,99840
2023-03-30T02:49:12.409Z,99840
2023-03-30T02:50:15.086Z,99840
2023-03-30T02:51:18.012Z,99840
2023-03-30T02:52:10.001Z,99830
2023-03-30T02:53:06.986Z,99830
2023-03-30T02:54:11.467Z,99830
2023-03-30T02:55:03.738Z,99820
2023-03-30T02:56:10.730Z,99830
2023-03-30T02:57:14.751Z,99820
2023-03-30T02:58:13.167Z,99820
2023-03-30T02:59:07.492Z,99830
2023-03-30T03:00:09.947Z,99820
2023-03-30T03:01:12.950Z,99820
2023-03-30T03:02:09.290Z,99820
2023-03-30T03:03:08.078Z,99820
2023-03-30T03:04:02.612Z,99820
2023-03-30T03:05:01.347Z,99820
2023-03-30T03:06:01.839Z,99810
2023-03-30T03:07:00.567Z,99810
2023-03-30T03:08:00.492Z,99810
2023-03-30T03:09:00.528Z,99810
2023-03-30T03:10:00.529Z,99810
2023-03-30T03:11:00.694Z,99810
2023-03-30T03:12:00.493Z,99800
2023-03-30T03:13:00.537Z,99800
2023-03-30T03:14:00.688Z,99800
2023-03-30T03:15:00.522Z,99800
2023-03-30T03:16:02.894Z,99790
2023-03-30T03:17:00.513Z,99800
2023-03-30T03:18:00.519Z,99800
2023-03-30T03:19:00.482Z,99790
2023-03-30T03:20:00.958Z,99790
2023-03-30T03:21:00.519Z,99790
2023-03-30T03:22:00.580Z,99790
2023-03-30T03:23:00.559Z,99780
2023-03-30T03:24:00.512Z,99780
2023-03-30T03:25:00.518Z,99780
2023-03-30T03:26:00.981Z,99780
2023-03-30T03:27:00.500Z,99780
2023-03-30T03:28:00.503Z,99780
2023-03-30T03:29:00.493Z,99780
2023-03-30T03:30:00.703Z,99770
2023-03-30T03:31:01.318Z,99770
2023-03-30T03:32:00.547Z,99770
2023-03-30T03:33:00.544Z,99770
2023-03-30T03:34:00.704Z,99770
2023-03-30T03:35:00.501Z,99780
2023-03-30T03:36:00.717Z,99770
2023-03-30T03:37:00.547Z,99770
2023-03-30T03:38:00.482Z,99770
2023-03-30T03:39:00.471Z,99770
2023-03-30T03:40:00.495Z,99770
2023-03-30T03:41:00.506Z,99760
2023-03-30T03:42:00.477Z,99760
2023-03-30T03:43:00.560Z,99760
2023-03-30T03:44:00.490Z,99760
2023-03-30T03:45:00.492Z,99760
2023-03-30T03:46:00.609Z,99750
2023-03-30T03:47:00.518Z,99750
2023-03-30T03:48:00.555Z,99750
2023-03-30T03:49:00.523Z,99740
2023-03-30T03:50:00.560Z,99730
2023-03-30T03:51:00.749Z,99740
2023-03-30T03:52:00.493Z,99740
2023-03-30T03:53:00.557Z,99730
2023-03-30T03:54:00.973Z,99730
2023-03-30T03:55:00.543Z,99730
2023-03-30T03:56:01.001Z,99730
2023-03-30T03:57:00.542Z,99730
2023-03-30T03:58:01.747Z,99720
2023-03-30T03:59:01.279Z,99720
2023-03-30T04:00:00.628Z,99720
2023-03-30T04:01:01.511Z,99720
2023-03-30T04:02:00.546Z,99720
2023-03-30T04:03:00.594Z,99710
2023-03-30T04:04:00.592Z,99710
2023-03-30T04:05:00.603Z,99710
2023-03-30T04:06:00.612Z,99710
2023-03-30T04:07:00.513Z,99710
2023-03-30T04:08:00.782Z,99710
2023-03-30T04:09:00.511Z,99720
2023-03-30T04:10:03.313Z,99730
2023-03-30T04:11:06.665Z,99740
2023-03-30T04:12:00.510Z,99740
2023-03-30T04:13:00.510Z,99740
2023-03-30T04:14:00.521Z,99750
2023-03-30T04:15:00.523Z,99750
2023-03-30T04:16:01.176Z,99750
2023-03-30T04:17:00.576Z,99760
2023-03-30T04:18:00.988Z,99760
2023-03-30T04:19:00.524Z,99750
2023-03-30T04:20:00.558Z,99750
2023-03-30T04:21:02.699Z,99750
2023-03-30T04:22:00.533Z,99750
2023-03-30T04:23:00.517Z,99760
2023-03-30T04:24:00.640Z,99760
2023-03-30T04:25:00.561Z,99760
2023-03-30T04:26:01.256Z,99760
2023-03-30T04:27:01.475Z,99750
2023-03-30T04:28:00.587Z,99750
2023-03-30T04:29:00.499Z,99740
2023-03-30T04:30:00.510Z,99730
2023-03-30T04:31:03.109Z,99730
2023-03-30T04:32:00.605Z,99720
2023-03-30T04:33:00.598Z,99720
2023-03-30T04:34:01.008Z,99720
2023-03-30T04:35:00.886Z,99720
2023-03-30T04:36:00.831Z,99720
2023-03-30T04:37:00.526Z,99720
2023-03-30T04:38:00.865Z,99710
2023-03-30T04:39:00.533Z,99710
2023-03-30T04:40:01.527Z,99700
2023-03-30T04:41:00.523Z,99710
2023-03-30T04:42:00.812Z,99720
2023-03-30T04:43:00.559Z,99720
2023-03-30T04:44:04.257Z,99720
2023-03-30T04:45:00.503Z,99710
2023-03-30T04:46:00.685Z,99700
2023-03-30T04:47:00.521Z,99710
2023-03-30T04:48:00.603Z,99710
2023-03-30T04:49:01.447Z,99720
2023-03-30T04:50:01.051Z,99710
2023-03-30T04:51:00.502Z,99720
2023-03-30T04:52:00.553Z,99710
2023-03-30T04:53:00.504Z,99710
2023-03-30T04:54:00.531Z,99720
2023-03-30T04:55:00.507Z,99710
2023-03-30T04:56:00.565Z,99710
2023-03-30T04:57:00.557Z,99700
2023-03-30T04:58:00.496Z,99700
2023-03-30T04:59:00.512Z,99700
2023-03-30T05:00:00.573Z,99700
2023-03-30T05:01:00.548Z,99700
2023-03-30T05:02:00.965Z,99700
2023-03-30T05:03:00.620Z,99700
2023-03-30T05:04:00.506Z,99700
2023-03-30T05:05:00.544Z,99700
2023-03-30T05:06:00.620Z,99700
2023-03-30T05:07:00.753Z,99700
2023-03-30T05:08:00.538Z,99710
2023-03-30T05:09:00.540Z,99710
2023-03-30T05:10:00.593Z,99710
2023-03-30T05:11:02.074Z,99700
2023-03-30T05:12:00.530Z,99700
2023-03-30T05:13:00.720Z,99700
2023-03-30T05:14:00.527Z,99700
2023-03-30T05:15:00.589Z,99690
2023-03-30T05:16:00.510Z,99690
2023-03-30T05:17:00.586Z,99690
2023-03-30T05:18:00.636Z,99690
2023-03-30T05:19:00.523Z,99680
2023-03-30T05:20:00.562Z,99680
2023-03-30T05:21:00.490Z,99680
2023-03-30T05:22:00.520Z,99680
2023-03-30T05:23:00.508Z,99690
2023-03-30T05:24:00.559Z,99680
2023-03-30T05:25:00.628Z,99680
2023-03-30T05:26:00.839Z,99680
2023-03-30T05:27:00.499Z,99680
2023-03-30T05:28:00.510Z,99680
2023-03-30T05:29:00.520Z,99690
2023-03-30T05:30:00.714Z,99690
2023-03-30T05:31:00.590Z,99690
2023-03-30T05:32:00.581Z,99690
2023-03-30T05:33:00.539Z,99690
2023-03-30T05:34:00.594Z,99680
2023-03-30T05:35:00.593Z,99680
2023-03-30T05:36:00.527Z,99680
2023-03-30T05:37:00.558Z,99680
2023-03-30T05:38:00.496Z,99680
2023-03-30T05:39:00.880Z,99680
2023-03-30T05:40:00.596Z,99680
2023-03-30T05:41:01.274Z,99680
2023-03-30T05:42:00.508Z,99680
2023-03-30T05:43:00.498Z,99680
2023-03-30T05:44:00.488Z,99680
2023-03-30T05:45:00.506Z,99680
2023-03-30T05:46:00.551Z,99680
2023-03-30T05:47:00.519Z,99680
2023-03-30T05:48:00.615Z,99680
2023-03-30T05:49:00.520Z,99680
2023-03-30T05:50:00.610Z,99680
2023-03-30T05:51:02.411Z,99690
2023-03-30T05:52:00.502Z,99680
2023-03-30T05:53:00.558Z,99680
2023-03-30T05:54:00.495Z,99680
2023-03-30T05:55:00.532Z,99680
2023-03-30T05:56:00.520Z,99680
2023-03-30T05:57:00.529Z,99680
2023-03-30T05:58:00.512Z,99680
2023-03-30T05:59:00.533Z,99680
2023-03-30T06:00:00.649Z,99680
2023-03-30T06:01:00.501Z,99690
2023-03-30T06:02:00.520Z,99690
2023-03-30T06:03:00.647Z,99690
2023-03-30T06:04:00.716Z,99680
2023-03-30T06:05:01.097Z,99690
2023-03-30T06:06:00.497Z,99680
2023-03-30T06:07:00.497Z,99680
2023-03-30T06:08:00.496Z,99680
2023-03-30T06:09:00.533Z,99680
2023-03-30T06:10:00.516Z,99680
2023-03-30T06:11:00.551Z,99680
2023-03-30T06:12:00.496Z,99670
2023-03-30T06:13:01.021Z,99670
2023-03-30T06:14:00.576Z,99650
2023-03-30T06:15:00.527Z,99650
2023-03-30T06:16:03.105Z,99650
2023-03-30T06:17:00.580Z,99650
2023-03-30T06:18:00.642Z,99650
2023-03-30T06:19:00.496Z,99640
2023-03-30T06:20:00.759Z,99640
2023-03-30T06:21:00.560Z,99640
2023-03-30T06:22:00.551Z,99640
2023-03-30T06:23:00.552Z,99630
2023-03-30T06:24:00.502Z,99630
2023-03-30T06:25:00.483Z,99630
2023-03-30T06:26:00.489Z,99630
2023-03-30T06:27:00.494Z,99640
2023-03-30T06:28:00.523Z,99640
2023-03-30T06:29:00.492Z,99630
2023-03-30T06:30:00.633Z,99630
2023-03-30T06:31:00.666Z,99630
2023-03-30T06:32:01.013Z,99630
2023-03-30T06:33:00.548Z,99630
2023-03-30T06:34:00.544Z,99630
2023-03-30T06:35:01.256Z,99630
2023-03-30T06:36:00.619Z,99630
2023-03-30T06:37:00.486Z,99640
2023-03-30T06:38:00.492Z,99650
2023-03-30T06:39:03.547Z,99640
2023-03-30T06:40:01.632Z,99650
2023-03-30T06:41:03.033Z,99650
2023-03-30T06:42:00.479Z,99640
2023-03-30T06:43:00.510Z,99650
2023-03-30T06:44:00.497Z,99650
2023-03-30T06:45:00.554Z,99650
2023-03-30T06:46:00.574Z,99650
2023-03-30T06:47:00.533Z,99640
2023-03-30T06:48:00.520Z,99640
2023-03-30T06:49:00.568Z,99640
2023-03-30T06:50:00.613Z,99650
2023-03-30T06:51:00.477Z,99650
2023-03-30T06:52:03.918Z,99660
2023-03-30T06:53:00.499Z,99650
2023-03-30T06:54:01.238Z,99650
2023-03-30T06:55:00.514Z,99650
2023-03-30T06:56:00.516Z,99650
2023-03-30T06:57:00.543Z,99650
2023-03-30T06:58:00.567Z,99650
2023-03-30T06:59:00.501Z,99640
2023-03-30T07:00:00.759Z,99640
2023-03-30T07:01:11.039Z,99640
2023-03-30T07:02:00.533Z,99640
2023-03-30T07:03:00.681Z,99630
2023-03-30T07:04:00.543Z,99640
2023-03-30T07:05:00.498Z,99640
2023-03-30T07:06:00.514Z,99640
2023-03-30T07:07:00.532Z,99640
2023-03-30T07:08:00.957Z,99640
2023-03-30T07:09:00.973Z,99640
2023-03-30T07:10:01.087Z,99630
2023-03-30T07:11:03.515Z,99630
2023-03-30T07:12:00.569Z,99630
2023-03-30T07:13:00.532Z,99630
2023-03-30T07:14:00.540Z,99630
2023-03-30T07:15:00.514Z,99620
2023-03-30T07:16:00.765Z,99620
2023-03-30T07:17:01.194Z,99610
2023-03-30T07:18:00.572Z,99620
2023-03-30T07:19:00.551Z,99620
2023-03-30T07:20:01.448Z,99620
2023-03-30T07:21:00.698Z,99620
2023-03-30T07:22:00.559Z,99630
2023-03-30T07:23:01.286Z,99630
2023-03-30T07:24:00.566Z,99630
2023-03-30T07:25:00.538Z,99630
2023-03-30T07:26:00.542Z,99620
2023-03-30T07:27:00.528Z,99620
2023-03-30T07:28:00.553Z,99610
2023-03-30T07:29:00.707Z,99610
2023-03-30T07:30:10.311Z,99600
2023-03-30T07:31:02.680Z,99600
2023-03-30T07:32:00.532Z,99590
2023-03-30T07:33:00.615Z,99590
2023-03-30T07:34:00.513Z,99590
2023-03-30T07:35:00.779Z,99600
2023-03-30T07:36:00.641Z,99590
2023-03-30T07:37:01.295Z,99600
2023-03-30T07:38:03.898Z,99590
2023-03-30T07:39:00.495Z,99590
2023-03-30T07:40:00.575Z,99600
2023-03-30T07:41:00.672Z,99600
2023-03-30T07:42:00.499Z,99600
2023-03-30T07:43:00.529Z,99600
2023-03-30T07:44:00.518Z,99590
2023-03-30T07:45:00.499Z,99580
2023-03-30T07:46:00.629Z,99590
2023-03-30T07:47:00.563Z,99580
2023-03-30T07:48:00.608Z,99580
2023-03-30T07:49:00.558Z,99580
2023-03-30T07:50:00.871Z,99580
2023-03-30T07:51:04.048Z,99570
2023-03-30T07:52:00.602Z,99580
2023-03-30T07:53:00.493Z,99570
2023-03-30T07:54:00.700Z,99570
2023-03-30T07:55:00.574Z,99560
2023-03-30T07:56:00.474Z,99550
2023-03-30T07:57:00.558Z,99550
2023-03-30T07:58:00.518Z,99550
2023-03-30T07:59:01.828Z,99550
2023-03-30T08:00:00.489Z,99540
2023-03-30T08:01:00.562Z,99540
2023-03-30T08:02:00.494Z,99540
2023-03-30T08:03:00.603Z,99540
2023-03-30T08:04:01.274Z,99540
2023-03-30T08:05:00.673Z,99530
2023-03-30T08:06:01.851Z,99530
2023-03-30T08:07:00.614Z,99530
2023-03-30T08:08:00.483Z,99530
2023-03-30T08:09:00.537Z,99530
2023-03-30T08:10:00.579Z,99530
2023-03-30T08:11:00.585Z,99530
2023-03-30T08:12:01.086Z,99530
2023-03-30T08:13:00.500Z,99530
2023-03-30T08:14:03.035Z,99530
2023-03-30T08:15:00.504Z,99530
2023-03-30T08:16:00.497Z,99530
2023-03-30T08:17:00.489Z,99520
2023-03-30T08:18:00.539Z,99530
2023-03-30T08:19:00.517Z,99530
2023-03-30T08:20:00.619Z,99530
2023-03-30T08:21:00.489Z,99530
2023-03-30T08:22:00.485Z,99530
2023-03-30T08:23:00.478Z,99530
2023-03-30T08:24:00.507Z,99540
2023-03-30T08:26:00.537Z,99530
2023-03-30T08:27:00.634Z,99530
2023-03-30T08:28:00.571Z,99530
2023-03-30T08:29:00.568Z,99530
2023-03-30T08:30:00.514Z,99530
2023-03-30T08:35:00.551Z,99510
2023-03-30T08:47:03.696Z,99500
2023-03-30T08:48:00.704Z,99500
2023-03-30T08:50:10.473Z,99490
2023-03-30T08:51:07.223Z,99490
2023-03-30T08:52:03.390Z,99490
2023-03-30T08:53:04.529Z,99500
2023-03-30T08:54:03.835Z,99500
2023-03-30T08:55:01.283Z,99500
2023-03-30T08:56:06.293Z,99500
2023-03-30T08:57:21.114Z,99500
2023-03-30T08:58:11.476Z,99500
2023-03-30T08:59:16.262Z,99490
2023-03-30T09:00:18.000Z,99500
2023-03-30T09:01:15.769Z,99500
2023-03-30T09:02:12.726Z,99500
2023-03-30T09:03:13.936Z,99500
2023-03-30T09:04:20.403Z,99500
2023-03-30T09:05:17.018Z,99500
2023-03-30T09:06:10.252Z,99490
2023-03-30T09:07:08.671Z,99490
2023-03-30T09:08:16.273Z,99490
2023-03-30T09:09:00.553Z,99480
2023-03-30T09:10:00.654Z,99480
2023-03-30T09:11:04.592Z,99480
2023-03-30T09:12:05.690Z,99470
2023-03-30T09:13:04.258Z,99470
2023-03-30T09:14:05.003Z,99470
2023-03-30T09:15:06.753Z,99470
2023-03-30T09:16:11.529Z,99470
2023-03-30T09:17:16.365Z,99470
2023-03-30T09:18:06.426Z,99460
2023-03-30T09:19:04.032Z,99460
2023-03-30T09:20:05.167Z,99460
2023-03-30T09:21:03.529Z,99450
2023-03-30T09:22:04.682Z,99460
2023-03-30T09:23:02.246Z,99450
2023-03-30T09:24:10.188Z,99450
2023-03-30T09:25:00.715Z,99440
2023-03-30T09:26:20.432Z,99430
2023-03-30T09:27:08.478Z,99430
2023-03-30T09:28:11.245Z,99430
2023-03-30T09:29:18.481Z,99430
2023-03-30T09:31:06.582Z,99430
2023-03-30T09:42:20.484Z,99430
2023-03-30T09:43:12.943Z,99420
2023-03-30T09:47:01.239Z,99400
2023-03-30T09:48:04.139Z,99400
2023-03-30T09:49:11.635Z,99390
2023-03-30T09:50:07.426Z,99390
2023-03-30T09:51:00.606Z,99390
2023-03-30T09:52:03.250Z,99390
2023-03-30T09:53:03.612Z,99380
2023-03-30T09:54:03.241Z,99380
2023-03-30T09:55:17.975Z,99380
2023-03-30T09:56:07.794Z,99380
2023-03-30T09:57:00.601Z,99380
2023-03-30T09:58:13.331Z,99370
2023-03-30T09:59:19.165Z,99380
2023-03-30T10:00:20.501Z,99380
2023-03-30T10:01:09.970Z,99380
2023-03-30T10:02:11.557Z,99370
2023-03-30T10:07:12.831Z,99370
2023-03-30T10:14:00.572Z,99390
2023-03-30T10:15:01.470Z,99390
2023-03-30T10:16:07.252Z,99390
2023-03-30T10:20:20.510Z,99390
2023-03-30T10:26:02.830Z,99390
2023-03-30T10:27:10.374Z,99400
2023-03-30T10:32:08.974Z,99390
2023-03-30T10:33:01.798Z,99380
2023-03-30T10:34:02.634Z,99380
2023-03-30T10:35:06.749Z,99380
2023-03-30T10:36:00.922Z,99380
2023-03-30T10:37:04.569Z,99380
2023-03-30T10:38:01.410Z,99380
2023-03-30T10:39:05.692Z,99370
2023-03-30T10:40:09.979Z,99380
2023-03-30T10:43:02.645Z,99370
2023-03-30T10:44:14.983Z,99370
2023-03-30T10:45:02.542Z,99370
2023-03-30T10:49:20.464Z,99360
2023-03-30T11:10:13.739Z,99360
2023-03-30T11:13:10.058Z,99350
2023-03-30T11:14:06.484Z,99360
2023-03-30T11:15:07.534Z,99360
2023-03-30T11:16:06.353Z,99360
2023-03-30T11:17:05.304Z,99350
2023-03-30T11:18:08.161Z,99360
2023-03-30T11:19:11.336Z,99360
2023-03-30T11:20:17.060Z,99360
2023-03-30T11:21:04.660Z,99360
2023-03-30T11:22:10.933Z,99370
2023-03-30T11:23:09.224Z,99370
2023-03-30T11:24:11.541Z,99370
2023-03-30T11:25:01.968Z,99380
2023-03-30T11:26:04.235Z,99380
2023-03-30T11:27:14.986Z,99380
2023-03-30T11:28:11.022Z,99380
2023-03-30T11:29:06.737Z,99380
2023-03-30T11:30:10.668Z,99390
2023-03-30T11:31:08.179Z,99380
2023-03-30T11:32:13.592Z,99380
2023-03-30T11:33:10.636Z,99390
2023-03-30T11:34:09.477Z,99390
2023-03-30T11:35:15.805Z,99390
2023-03-30T11:36:09.636Z,99390
2023-03-30T11:37:11.415Z,99390
2023-03-30T11:38:10.222Z,99400
2023-03-30T11:39:03.708Z,99400
2023-03-30T11:40:17.876Z,99410
2023-03-30T11:41:08.929Z,99410
2023-03-30T11:42:11.501Z,99410
2023-03-30T11:43:00.694Z,99410
2023-03-30T11:44:00.588Z,99400
2023-03-30T11:45:03.614Z,99400
2023-03-30T11:46:05.287Z,99410
2023-03-30T11:47:10.464Z,99410
2023-03-30T11:48:09.450Z,99420
2023-03-30T11:49:13.424Z,99420
2023-03-30T11:50:16.684Z,99410
2023-03-30T11:51:17.790Z,99410
2023-03-30T11:52:03.788Z,99420
2023-03-30T11:53:20.420Z,99410
2023-03-30T11:54:17.779Z,99420
2023-03-30T11:55:20.464Z,99410
2023-03-30T11:56:06.348Z,99420
2023-03-30T11:57:10.508Z,99410
2023-03-30T11:58:10.495Z,99410
2023-03-30T11:59:05.668Z,99410
2023-03-30T12:00:20.425Z,99410
2023-03-30T12:01:09.078Z,99410
2023-03-30T12:02:11.825Z,99410
2023-03-30T12:03:14.007Z,99410
2023-03-30T12:04:08.112Z,99410
2023-03-30T12:05:10.071Z,99410
2023-03-30T12:06:19.361Z,99410
2023-03-30T12:07:00.630Z,99410
2023-03-30T12:08:13.741Z,99410
2023-03-30T12:09:13.744Z,99410
2023-03-30T12:10:07.610Z,99410
2023-03-30T12:11:04.393Z,99410
2023-03-30T12:12:10.508Z,99410
2023-03-30T12:13:01.407Z,99410
2023-03-30T12:14:00.931Z,99410
2023-03-30T12:15:11.532Z,99420
2023-03-30T12:16:07.848Z,99420
2023-03-30T12:17:12.620Z,99410
2023-03-30T12:18:14.537Z,99410
2023-03-30T12:19:14.406Z,99410
2023-03-30T12:20:20.464Z,99400
2023-03-30T12:21:20.433Z,99410
2023-03-30T12:22:05.868Z,99400
2023-03-30T12:23:08.381Z,99400
2023-03-30T12:24:12.416Z,99400
2023-03-30T12:25:12.222Z,99400
2023-03-30T12:26:07.454Z,99400
2023-03-30T12:27:06.073Z,99400
2023-03-30T12:28:13.576Z,99400
2023-03-30T12:30:12.268Z,99400
2023-03-30T12:31:00.882Z,99390
2023-03-30T12:32:00.619Z,99390
2023-03-30T12:33:11.238Z,99390
2023-03-30T12:34:07.637Z,99390
2023-03-30T12:35:00.531Z,99390
2023-03-30T12:36:20.429Z,99390
2023-03-30T12:37:10.470Z,99380
2023-03-30T12:38:04.403Z,99390
2023-03-30T12:39:01.522Z,99390
2023-03-30T12:40:13.656Z,99380
2023-03-30T12:41:12.216Z,99380
2023-03-30T12:42:05.563Z,99380
2023-03-30T12:43:12.852Z,99380
2023-03-30T12:44:11.539Z,99380
2023-03-30T12:45:11.466Z,99380
2023-03-30T12:46:10.631Z,99380
2023-03-30T12:47:20.418Z,99380
2023-03-30T12:48:13.436Z,99380
2023-03-30T12:49:20.304Z,99380
2023-03-30T12:50:16.919Z,99380
2023-03-30T12:51:17.972Z,99380
2023-03-30T12:52:01.623Z,99380
2023-03-30T12:53:17.513Z,99380
2023-03-30T12:54:10.572Z,99370
2023-03-30T12:55:20.421Z,99370
2023-03-30T12:56:06.215Z,99370
2023-03-30T12:57:07.953Z,99370
2023-03-30T12:58:17.799Z,99370
2023-03-30T12:59:17.835Z,99360
2023-03-30T13:00:20.427Z,99370
2023-03-30T13:01:09.578Z,99370
2023-03-30T13:02:17.938Z,99370
2023-03-30T13:03:15.938Z,99370
2023-03-30T13:04:05.763Z,99370
2023-03-30T13:05:01.440Z,99370
2023-03-30T13:06:02.855Z,99370
2023-03-30T13:07:04.003Z,99360
2023-03-30T13:08:04.411Z,99360
2023-03-30T13:09:20.428Z,99360
2023-03-30T13:10:12.788Z,99360
2023-03-30T13:11:12.258Z,99350
2023-03-30T13:12:00.521Z,99350
2023-03-30T13:13:03.032Z,99350
2023-03-30T13:14:15.755Z,99350
2023-03-30T13:15:14.024Z,99360
2023-03-30T13:16:00.527Z,99350
2023-03-30T13:17:00.508Z,99360
2023-03-30T13:18:12.762Z,99350
2023-03-30T13:19:19.972Z,99360
2023-03-30T13:20:25.990Z,99350
2023-03-30T13:21:14.531Z,99350
2023-03-30T13:22:01.519Z,99360
2023-03-30T13:23:10.469Z,99350
2023-03-30T13:24:18.576Z,99350
2023-03-30T13:25:11.517Z,99360
2023-03-30T13:26:19.209Z,99350
2023-03-30T13:27:13.740Z,99350
2023-03-30T13:28:20.421Z,99340
2023-03-30T13:29:07.742Z,99350
2023-03-30T13:30:02.050Z,99350
2023-03-30T13:31:10.559Z,99350
2023-03-30T13:32:20.444Z,99350
2023-03-30T13:33:08.961Z,99350
2023-03-30T13:34:14.507Z,99350
2023-03-30T13:35:20.420Z,99350
2023-03-30T13:36:00.540Z,99340
2023-03-30T13:37:10.411Z,99340
2023-03-30T13:38:11.496Z,99340
2023-03-30T13:39:05.542Z,99340
2023-03-30T13:40:10.963Z,99340
2023-03-30T13:41:13.724Z,99340
2023-03-30T13:42:17.039Z,99340
2023-03-30T13:43:13.742Z,99330
2023-03-30T13:44:10.389Z,99330
2023-03-30T13:45:15.721Z,99330
2023-03-30T13:46:16.972Z,99330
2023-03-30T13:47:13.584Z,99330
2023-03-30T13:50:06.388Z,99320
2023-03-30T13:51:02.976Z,99320
2023-03-30T13:53:02.870Z,99320
2023-03-30T13:54:05.353Z,99320
2023-03-30T13:55:02.628Z,99310
2023-03-30T13:56:05.630Z,99310
2023-03-30T13:57:08.583Z,99310
2023-03-30T13:58:05.244Z,99300
2023-03-30T13:59:19.898Z,99310
2023-03-30T14:00:06.572Z,99300
2023-03-30T14:01:09.641Z,99300
2023-03-30T14:02:01.954Z,99300
2023-03-30T14:03:20.425Z,99300
2023-03-30T14:04:00.967Z,99290
2023-03-30T14:05:13.724Z,99290
2023-03-30T14:06:04.244Z,99290
2023-03-30T14:07:10.408Z,99290
2023-03-30T14:08:00.521Z,99290
2023-03-30T14:09:03.748Z,99280
2023-03-30T14:10:03.587Z,99270
2023-03-30T14:11:05.076Z,99270
2023-03-30T14:12:03.841Z,99270
2023-03-30T14:13:01.597Z,99260
2023-03-30T14:14:02.711Z,99260
2023-03-30T14:15:00.906Z,99260
2023-03-30T14:16:02.037Z,99260